sensor_id;sensor_type;location;lat;lon;timestamp;temperature;humidity
21522;DHT22;10922;45.572;10.002;2023-05-17T00:02:01;14.60;1.00
21522;DHT22;10922;45.572;10.002;2023-05-17T00:04:27;14.60;1.00
21522;DHT22;10922;45.572;10.002;2023-05-17T00:06:53;14.50;1.00
21522;DHT22;10922;45.572;10.002;2023-05-17T00:09:18;14.50;1.00
21522;DHT22;10922;45.572;10.002;2023-05-17T00:11:44;14.50;1.00
21522;DHT22;10922;45.572;10.002;2023-05-17T00:14:10;14.50;1.00
21522;DHT22;10922;45.572;10.002;2023-05-17T00:16:36;14.60;1.00
21522;DHT22;10922;45.572;10.002;2023-05-17T00:19:02;14.60;1.00
21522;DHT22;10922;45.572;10.002;2023-05-17T00:21:28;14.50;1.00
21522;DHT22;10922;45.572;10.002;2023-05-17T00:23:55;14.50;1.00
21522;DHT22;10922;45.572;10.002;2023-05-17T00:26:22;14.40;1.00
21522;DHT22;10922;45.572;10.002;2023-05-17T00:28:48;14.40;1.00
21522;DHT22;10922;45.572;10.002;2023-05-17T00:31:13;14.30;1.00
21522;DHT22;10922;45.572;10.002;2023-05-17T00:33:39;14.30;1.00
21522;DHT22;10922;45.572;10.002;2023-05-17T00:36:05;14.20;1.00
21522;DHT22;10922;45.572;10.002;2023-05-17T00:38:31;14.20;1.00
21522;DHT22;10922;45.572;10.002;2023-05-17T00:40:56;14.20;1.00
21522;DHT22;10922;45.572;10.002;2023-05-17T00:43:22;14.20;1.00
21522;DHT22;10922;45.572;10.002;2023-05-17T00:45:48;14.30;1.00
21522;DHT22;10922;45.572;10.002;2023-05-17T00:48:17;14.30;1.00
21522;DHT22;10922;45.572;10.002;2023-05-17T00:50:45;14.40;1.00
21522;DHT22;10922;45.572;10.002;2023-05-17T00:53:11;14.40;1.00
21522;DHT22;10922;45.572;10.002;2023-05-17T00:55:42;14.40;1.00
21522;DHT22;10922;45.572;10.002;2023-05-17T00:58:08;14.40;1.00
21522;DHT22;10922;45.572;10.002;2023-05-17T01:00:34;14.30;1.00
21522;DHT22;10922;45.572;10.002;2023-05-17T01:03:00;14.20;1.00
21522;DHT22;10922;45.572;10.002;2023-05-17T01:05:25;14.20;1.00
21522;DHT22;10922;45.572;10.002;2023-05-17T01:07:53;14.20;1.00
21522;DHT22;10922;45.572;10.002;2023-05-17T01:10:18;14.20;1.00
21522;DHT22;10922;45.572;10.002;2023-05-17T01:13:09;14.20;1.00
21522;DHT22;10922;45.572;10.002;2023-05-17T01:15:40;14.10;1.00
21522;DHT22;10922;45.572;10.002;2023-05-17T01:18:37;14.10;1.00
21522;DHT22;10922;45.572;10.002;2023-05-17T01:21:45;14.00;1.00
21522;DHT22;10922;45.572;10.002;2023-05-17T01:24:27;14.00;1.00
21522;DHT22;10922;45.572;10.002;2023-05-17T01:26:55;14.00;1.00
21522;DHT22;10922;45.572;10.002;2023-05-17T01:29:25;14.00;1.00
21522;DHT22;10922;45.572;10.002;2023-05-17T01:31:53;14.00;1.00
21522;DHT22;10922;45.572;10.002;2023-05-17T01:34:24;13.90;1.00
21522;DHT22;10922;45.572;10.002;2023-05-17T01:36:50;13.90;1.00
21522;DHT22;10922;45.572;10.002;2023-05-17T01:39:16;13.90;1.00
21522;DHT22;10922;45.572;10.002;2023-05-17T01:41:42;14.00;1.00
21522;DHT22;10922;45.572;10.002;2023-05-17T01:47:01;13.90;1.00
21522;DHT22;10922;45.572;10.002;2023-05-17T01:49:33;13.90;1.00
21522;DHT22;10922;45.572;10.002;2023-05-17T01:57:33;13.90;1.00
21522;DHT22;10922;45.572;10.002;2023-05-17T02:00:02;13.80;1.00
21522;DHT22;10922;45.572;10.002;2023-05-17T02:02:29;13.90;1.00
21522;DHT22;10922;45.572;10.002;2023-05-17T02:04:55;13.90;1.00
21522;DHT22;10922;45.572;10.002;2023-05-17T02:07:20;14.00;1.00
21522;DHT22;10922;45.572;10.002;2023-05-17T02:09:46;14.00;1.00
21522;DHT22;10922;45.572;10.002;2023-05-17T02:12:12;13.80;1.00
21522;DHT22;10922;45.572;10.002;2023-05-17T02:14:37;13.70;1.00
21522;DHT22;10922;45.572;10.002;2023-05-17T02:17:03;13.70;1.00
21522;DHT22;10922;45.572;10.002;2023-05-17T02:19:30;13.80;1.00
21522;DHT22;10922;45.572;10.002;2023-05-17T02:21:56;13.70;1.00
21522;DHT22;10922;45.572;10.002;2023-05-17T02:24:22;13.80;1.00
21522;DHT22;10922;45.572;10.002;2023-05-17T02:26:47;13.80;1.00
21522;DHT22;10922;45.572;10.002;2023-05-17T02:29:13;13.80;1.00
21522;DHT22;10922;45.572;10.002;2023-05-17T02:31:39;13.80;1.00
21522;DHT22;10922;45.572;10.002;2023-05-17T02:34:05;13.90;1.00
21522;DHT22;10922;45.572;10.002;2023-05-17T02:36:31;13.90;1.00
21522;DHT22;10922;45.572;10.002;2023-05-17T02:38:57;13.90;1.00
21522;DHT22;10922;45.572;10.002;2023-05-17T02:41:23;13.90;1.00
21522;DHT22;10922;45.572;10.002;2023-05-17T02:43:48;14.00;1.00
21522;DHT22;10922;45.572;10.002;2023-05-17T02:46:15;13.90;1.00
21522;DHT22;10922;45.572;10.002;2023-05-17T02:48:40;13.90;1.00
21522;DHT22;10922;45.572;10.002;2023-05-17T02:51:06;13.90;1.00
21522;DHT22;10922;45.572;10.002;2023-05-17T02:53:31;13.90;1.00
21522;DHT22;10922;45.572;10.002;2023-05-17T02:55:57;13.90;1.00
21522;DHT22;10922;45.572;10.002;2023-05-17T02:58:24;13.90;1.00
21522;DHT22;10922;45.572;10.002;2023-05-17T03:00:50;13.90;1.00
21522;DHT22;10922;45.572;10.002;2023-05-17T03:03:16;13.90;1.00
21522;DHT22;10922;45.572;10.002;2023-05-17T03:05:41;13.90;1.00
21522;DHT22;10922;45.572;10.002;2023-05-17T03:08:07;13.90;1.00
21522;DHT22;10922;45.572;10.002;2023-05-17T03:10:33;13.90;1.00
21522;DHT22;10922;45.572;10.002;2023-05-17T03:12:58;13.90;1.00
21522;DHT22;10922;45.572;10.002;2023-05-17T03:15:25;13.90;1.00
21522;DHT22;10922;45.572;10.002;2023-05-17T03:17:54;14.00;1.00
21522;DHT22;10922;45.572;10.002;2023-05-17T03:20:20;14.00;1.00
21522;DHT22;10922;45.572;10.002;2023-05-17T03:22:46;14.00;1.00
21522;DHT22;10922;45.572;10.002;2023-05-17T03:25:11;13.90;1.00
21522;DHT22;10922;45.572;10.002;2023-05-17T03:27:37;13.90;1.00
21522;DHT22;10922;45.572;10.002;2023-05-17T03:30:03;13.90;1.00
21522;DHT22;10922;45.572;10.002;2023-05-17T03:32:29;13.90;1.00
21522;DHT22;10922;45.572;10.002;2023-05-17T03:34:54;13.70;1.00
21522;DHT22;10922;45.572;10.002;2023-05-17T03:37:20;13.60;1.00
21522;DHT22;10922;45.572;10.002;2023-05-17T03:39:46;13.50;1.00
21522;DHT22;10922;45.572;10.002;2023-05-17T03:42:11;13.50;1.00
21522;DHT22;10922;45.572;10.002;2023-05-17T03:44:37;13.60;1.00
21522;DHT22;10922;45.572;10.002;2023-05-17T03:47:03;13.60;1.00
21522;DHT22;10922;45.572;10.002;2023-05-17T03:49:29;13.70;1.00
21522;DHT22;10922;45.572;10.002;2023-05-17T03:51:54;13.70;1.00
21522;DHT22;10922;45.572;10.002;2023-05-17T03:54:20;13.80;1.00
21522;DHT22;10922;45.572;10.002;2023-05-17T03:56:47;13.80;1.00
21522;DHT22;10922;45.572;10.002;2023-05-17T03:59:15;13.80;1.00
21522;DHT22;10922;45.572;10.002;2023-05-17T04:01:42;13.80;1.00
21522;DHT22;10922;45.572;10.002;2023-05-17T04:04:08;13.80;1.00
21522;DHT22;10922;45.572;10.002;2023-05-17T04:06:34;13.90;1.00
21522;DHT22;10922;45.572;10.002;2023-05-17T04:09:00;13.80;1.00
21522;DHT22;10922;45.572;10.002;2023-05-17T04:11:26;13.80;1.00
21522;DHT22;10922;45.572;10.002;2023-05-17T04:13:53;13.90;1.00
21522;DHT22;10922;45.572;10.002;2023-05-17T04:16:19;13.90;1.00
21522;DHT22;10922;45.572;10.002;2023-05-17T04:18:45;14.00;1.00
21522;DHT22;10922;45.572;10.002;2023-05-17T04:21:11;14.10;1.00
21522;DHT22;10922;45.572;10.002;2023-05-17T04:23:37;14.10;1.00
21522;DHT22;10922;45.572;10.002;2023-05-17T04:26:03;14.20;1.00
21522;DHT22;10922;45.572;10.002;2023-05-17T04:28:31;14.20;1.00
21522;DHT22;10922;45.572;10.002;2023-05-17T04:30:56;14.20;1.00
21522;DHT22;10922;45.572;10.002;2023-05-17T04:33:22;14.30;1.00
21522;DHT22;10922;45.572;10.002;2023-05-17T04:35:50;14.30;1.00
21522;DHT22;10922;45.572;10.002;2023-05-17T04:38:18;14.30;1.00
21522;DHT22;10922;45.572;10.002;2023-05-17T04:40:44;14.30;1.00
21522;DHT22;10922;45.572;10.002;2023-05-17T04:43:10;14.30;1.00
21522;DHT22;10922;45.572;10.002;2023-05-17T04:45:36;14.20;1.00
21522;DHT22;10922;45.572;10.002;2023-05-17T04:48:02;14.30;1.00
21522;DHT22;10922;45.572;10.002;2023-05-17T04:50:28;14.30;1.00
21522;DHT22;10922;45.572;10.002;2023-05-17T04:52:53;14.40;1.00
21522;DHT22;10922;45.572;10.002;2023-05-17T04:55:19;14.30;1.00
21522;DHT22;10922;45.572;10.002;2023-05-17T04:57:45;14.40;1.00
21522;DHT22;10922;45.572;10.002;2023-05-17T05:00:11;14.40;1.00
21522;DHT22;10922;45.572;10.002;2023-05-17T05:02:38;14.50;1.00
21522;DHT22;10922;45.572;10.002;2023-05-17T05:05:04;14.60;1.00
21522;DHT22;10922;45.572;10.002;2023-05-17T05:07:31;14.60;1.00
21522;DHT22;10922;45.572;10.002;2023-05-17T05:09:56;14.60;1.00
21522;DHT22;10922;45.572;10.002;2023-05-17T05:12:23;14.60;1.00
21522;DHT22;10922;45.572;10.002;2023-05-17T05:14:49;14.70;1.00
21522;DHT22;10922;45.572;10.002;2023-05-17T05:17:15;14.70;1.00
21522;DHT22;10922;45.572;10.002;2023-05-17T05:19:41;14.80;1.00
21522;DHT22;10922;45.572;10.002;2023-05-17T05:22:06;14.80;1.00
21522;DHT22;10922;45.572;10.002;2023-05-17T05:24:32;14.90;1.00
21522;DHT22;10922;45.572;10.002;2023-05-17T05:26:58;14.80;1.00
21522;DHT22;10922;45.572;10.002;2023-05-17T05:29:23;14.80;1.00
21522;DHT22;10922;45.572;10.002;2023-05-17T05:31:49;14.80;1.00
21522;DHT22;10922;45.572;10.002;2023-05-17T05:34:15;14.80;1.00
21522;DHT22;10922;45.572;10.002;2023-05-17T05:36:40;14.90;1.00
21522;DHT22;10922;45.572;10.002;2023-05-17T05:39:06;14.80;1.00
21522;DHT22;10922;45.572;10.002;2023-05-17T05:41:32;14.80;1.00
21522;DHT22;10922;45.572;10.002;2023-05-17T05:43:58;14.80;1.00
21522;DHT22;10922;45.572;10.002;2023-05-17T05:46:25;14.90;1.00
21522;DHT22;10922;45.572;10.002;2023-05-17T05:48:50;14.90;1.00
21522;DHT22;10922;45.572;10.002;2023-05-17T05:51:16;15.00;1.00
21522;DHT22;10922;45.572;10.002;2023-05-17T05:53:43;15.20;1.00
21522;DHT22;10922;45.572;10.002;2023-05-17T05:56:09;15.30;1.00
21522;DHT22;10922;45.572;10.002;2023-05-17T05:58:35;15.50;1.00
21522;DHT22;10922;45.572;10.002;2023-05-17T06:01:01;15.60;1.00
21522;DHT22;10922;45.572;10.002;2023-05-17T06:03:27;15.60;1.00
21522;DHT22;10922;45.572;10.002;2023-05-17T06:05:52;15.80;1.00
21522;DHT22;10922;45.572;10.002;2023-05-17T06:08:18;16.00;1.00
21522;DHT22;10922;45.572;10.002;2023-05-17T06:10:44;16.00;1.00
21522;DHT22;10922;45.572;10.002;2023-05-17T06:13:10;16.00;1.00
21522;DHT22;10922;45.572;10.002;2023-05-17T06:15:36;16.20;1.00
21522;DHT22;10922;45.572;10.002;2023-05-17T06:18:01;16.20;1.00
21522;DHT22;10922;45.572;10.002;2023-05-17T06:20:27;16.30;1.00
21522;DHT22;10922;45.572;10.002;2023-05-17T06:22:52;16.50;1.00
21522;DHT22;10922;45.572;10.002;2023-05-17T06:25:18;16.70;1.00
21522;DHT22;10922;45.572;10.002;2023-05-17T06:27:44;17.00;1.00
21522;DHT22;10922;45.572;10.002;2023-05-17T06:30:10;17.10;1.00
21522;DHT22;10922;45.572;10.002;2023-05-17T06:32:36;17.20;1.00
21522;DHT22;10922;45.572;10.002;2023-05-17T06:35:02;17.60;1.00
21522;DHT22;10922;45.572;10.002;2023-05-17T06:37:28;17.70;1.00
21522;DHT22;10922;45.572;10.002;2023-05-17T06:40:04;17.70;1.00
21522;DHT22;10922;45.572;10.002;2023-05-17T06:42:31;17.80;1.00
21522;DHT22;10922;45.572;10.002;2023-05-17T06:44:56;18.10;99.90
21522;DHT22;10922;45.572;10.002;2023-05-17T06:47:22;18.30;99.90
21522;DHT22;10922;45.572;10.002;2023-05-17T06:49:48;18.30;99.90
21522;DHT22;10922;45.572;10.002;2023-05-17T06:52:13;18.20;99.90
21522;DHT22;10922;45.572;10.002;2023-05-17T06:54:39;18.10;99.90
21522;DHT22;10922;45.572;10.002;2023-05-17T06:57:05;18.10;99.90
21522;DHT22;10922;45.572;10.002;2023-05-17T06:59:30;18.10;99.90
21522;DHT22;10922;45.572;10.002;2023-05-17T07:01:56;18.00;99.90
21522;DHT22;10922;45.572;10.002;2023-05-17T07:04:22;18.00;99.90
21522;DHT22;10922;45.572;10.002;2023-05-17T07:06:47;17.50;99.90
21522;DHT22;10922;45.572;10.002;2023-05-17T07:09:13;17.60;99.90
21522;DHT22;10922;45.572;10.002;2023-05-17T07:11:39;17.30;99.90
21522;DHT22;10922;45.572;10.002;2023-05-17T07:14:05;17.10;1.00
21522;DHT22;10922;45.572;10.002;2023-05-17T07:16:30;17.30;99.90
21522;DHT22;10922;45.572;10.002;2023-05-17T07:18:57;16.90;99.90
21522;DHT22;10922;45.572;10.002;2023-05-17T07:21:23;17.10;99.90
21522;DHT22;10922;45.572;10.002;2023-05-17T07:23:49;16.80;1.00
21522;DHT22;10922;45.572;10.002;2023-05-17T07:26:20;16.60;99.90
21522;DHT22;10922;45.572;10.002;2023-05-17T07:28:47;16.60;99.90
21522;DHT22;10922;45.572;10.002;2023-05-17T07:31:12;16.40;99.90
21522;DHT22;10922;45.572;10.002;2023-05-17T07:33:38;16.40;1.00
21522;DHT22;10922;45.572;10.002;2023-05-17T07:36:05;16.40;99.90
21522;DHT22;10922;45.572;10.002;2023-05-17T07:38:31;16.50;99.90
21522;DHT22;10922;45.572;10.002;2023-05-17T07:41:00;16.80;99.90
21522;DHT22;10922;45.572;10.002;2023-05-17T07:43:26;16.80;99.90
21522;DHT22;10922;45.572;10.002;2023-05-17T07:45:51;16.80;99.90
21522;DHT22;10922;45.572;10.002;2023-05-17T07:48:17;16.80;99.90
21522;DHT22;10922;45.572;10.002;2023-05-17T07:50:43;16.50;99.90
21522;DHT22;10922;45.572;10.002;2023-05-17T07:53:11;16.60;99.90
21522;DHT22;10922;45.572;10.002;2023-05-17T07:55:37;16.50;99.90
21522;DHT22;10922;45.572;10.002;2023-05-17T07:58:02;16.50;99.90
21522;DHT22;10922;45.572;10.002;2023-05-17T08:00:28;16.40;99.90
21522;DHT22;10922;45.572;10.002;2023-05-17T08:02:55;16.40;99.90
21522;DHT22;10922;45.572;10.002;2023-05-17T08:05:21;16.30;99.90
21522;DHT22;10922;45.572;10.002;2023-05-17T08:07:47;16.40;99.90
21522;DHT22;10922;45.572;10.002;2023-05-17T08:10:13;16.40;99.90
21522;DHT22;10922;45.572;10.002;2023-05-17T08:12:38;16.30;99.90
21522;DHT22;10922;45.572;10.002;2023-05-17T08:15:04;16.40;99.90
21522;DHT22;10922;45.572;10.002;2023-05-17T08:17:30;16.50;99.90
21522;DHT22;10922;45.572;10.002;2023-05-17T08:19:56;16.50;99.90
21522;DHT22;10922;45.572;10.002;2023-05-17T08:22:21;16.60;99.90
21522;DHT22;10922;45.572;10.002;2023-05-17T08:24:47;16.50;99.90
21522;DHT22;10922;45.572;10.002;2023-05-17T08:27:12;16.30;99.90
21522;DHT22;10922;45.572;10.002;2023-05-17T08:29:38;16.40;99.90
21522;DHT22;10922;45.572;10.002;2023-05-17T08:32:04;16.30;99.90
21522;DHT22;10922;45.572;10.002;2023-05-17T08:34:30;16.50;99.90
21522;DHT22;10922;45.572;10.002;2023-05-17T08:36:56;16.60;99.90
21522;DHT22;10922;45.572;10.002;2023-05-17T08:39:22;16.50;99.90
21522;DHT22;10922;45.572;10.002;2023-05-17T08:41:47;16.70;99.90
21522;DHT22;10922;45.572;10.002;2023-05-17T08:44:17;16.80;99.90
21522;DHT22;10922;45.572;10.002;2023-05-17T08:46:43;16.70;99.90
21522;DHT22;10922;45.572;10.002;2023-05-17T08:49:09;16.90;99.90
21522;DHT22;10922;45.572;10.002;2023-05-17T08:51:39;16.90;99.90
21522;DHT22;10922;45.572;10.002;2023-05-17T08:54:06;17.00;99.90
21522;DHT22;10922;45.572;10.002;2023-05-17T08:56:34;17.00;99.90
21522;DHT22;10922;45.572;10.002;2023-05-17T08:59:05;16.90;99.90
21522;DHT22;10922;45.572;10.002;2023-05-17T09:01:33;17.20;99.90
21522;DHT22;10922;45.572;10.002;2023-05-17T09:03:59;16.80;99.90
21522;DHT22;10922;45.572;10.002;2023-05-17T09:06:25;16.90;99.90
21522;DHT22;10922;45.572;10.002;2023-05-17T09:08:52;17.00;99.90
21522;DHT22;10922;45.572;10.002;2023-05-17T09:11:27;17.00;99.90
21522;DHT22;10922;45.572;10.002;2023-05-17T09:13:56;17.30;99.90
21522;DHT22;10922;45.572;10.002;2023-05-17T09:16:22;18.00;99.90
21522;DHT22;10922;45.572;10.002;2023-05-17T09:18:55;17.60;99.90
21522;DHT22;10922;45.572;10.002;2023-05-17T09:21:22;17.60;99.90
21522;DHT22;10922;45.572;10.002;2023-05-17T09:23:50;17.60;99.90
21522;DHT22;10922;45.572;10.002;2023-05-17T09:26:16;17.50;99.90
21522;DHT22;10922;45.572;10.002;2023-05-17T09:28:43;17.40;99.90
21522;DHT22;10922;45.572;10.002;2023-05-17T09:31:10;17.70;99.90
21522;DHT22;10922;45.572;10.002;2023-05-17T09:33:46;17.50;99.90
21522;DHT22;10922;45.572;10.002;2023-05-17T09:36:20;17.70;99.90
21522;DHT22;10922;45.572;10.002;2023-05-17T09:38:56;18.00;99.90
21522;DHT22;10922;45.572;10.002;2023-05-17T09:41:39;18.30;99.90
21522;DHT22;10922;45.572;10.002;2023-05-17T09:44:08;18.00;99.90
21522;DHT22;10922;45.572;10.002;2023-05-17T09:46:34;17.40;99.90
21522;DHT22;10922;45.572;10.002;2023-05-17T09:49:01;18.10;99.90
21522;DHT22;10922;45.572;10.002;2023-05-17T09:53:58;18.20;99.90
21522;DHT22;10922;45.572;10.002;2023-05-17T09:56:27;18.40;99.90
21522;DHT22;10922;45.572;10.002;2023-05-17T09:58:54;18.20;99.90
21522;DHT22;10922;45.572;10.002;2023-05-17T10:01:21;18.50;99.90
21522;DHT22;10922;45.572;10.002;2023-05-17T10:03:46;18.10;99.90
21522;DHT22;10922;45.572;10.002;2023-05-17T10:06:15;18.00;99.90
21522;DHT22;10922;45.572;10.002;2023-05-17T10:08:45;17.80;1.00
21522;DHT22;10922;45.572;10.002;2023-05-17T10:11:14;18.30;99.90
21522;DHT22;10922;45.572;10.002;2023-05-17T10:13:46;18.80;99.90
21522;DHT22;10922;45.572;10.002;2023-05-17T10:16:14;18.10;99.90
21522;DHT22;10922;45.572;10.002;2023-05-17T10:18:41;18.30;99.90
21522;DHT22;10922;45.572;10.002;2023-05-17T10:21:07;18.10;99.90
21522;DHT22;10922;45.572;10.002;2023-05-17T10:23:35;18.50;99.90
21522;DHT22;10922;45.572;10.002;2023-05-17T10:26:01;18.50;99.90
21522;DHT22;10922;45.572;10.002;2023-05-17T10:28:27;18.10;99.90
21522;DHT22;10922;45.572;10.002;2023-05-17T10:30:54;18.50;99.90
21522;DHT22;10922;45.572;10.002;2023-05-17T10:33:22;18.10;99.90
21522;DHT22;10922;45.572;10.002;2023-05-17T10:35:48;18.00;99.90
21522;DHT22;10922;45.572;10.002;2023-05-17T10:38:16;18.50;99.90
21522;DHT22;10922;45.572;10.002;2023-05-17T10:40:43;19.00;99.90
21522;DHT22;10922;45.572;10.002;2023-05-17T10:43:11;19.00;99.90
21522;DHT22;10922;45.572;10.002;2023-05-17T10:45:37;18.90;99.90
21522;DHT22;10922;45.572;10.002;2023-05-17T10:48:04;19.00;99.90
21522;DHT22;10922;45.572;10.002;2023-05-17T10:50:31;19.30;99.90
21522;DHT22;10922;45.572;10.002;2023-05-17T10:52:58;19.80;99.90
21522;DHT22;10922;45.572;10.002;2023-05-17T10:55:36;19.50;99.90
21522;DHT22;10922;45.572;10.002;2023-05-17T10:58:14;20.20;99.90
21522;DHT22;10922;45.572;10.002;2023-05-17T11:00:48;19.40;99.90
21522;DHT22;10922;45.572;10.002;2023-05-17T11:06:10;20.30;99.90
21522;DHT22;10922;45.572;10.002;2023-05-17T11:08:31;20.00;99.90
21522;DHT22;10922;45.572;10.002;2023-05-17T11:11:10;19.90;99.90
21522;DHT22;10922;45.572;10.002;2023-05-17T11:13:44;20.20;99.90
21522;DHT22;10922;45.572;10.002;2023-05-17T11:16:14;20.60;99.90
21522;DHT22;10922;45.572;10.002;2023-05-17T11:18:52;21.70;99.90
21522;DHT22;10922;45.572;10.002;2023-05-17T11:21:19;22.40;99.90
21522;DHT22;10922;45.572;10.002;2023-05-17T11:23:46;22.10;99.90
21522;DHT22;10922;45.572;10.002;2023-05-17T11:28:43;22.00;99.90
21522;DHT22;10922;45.572;10.002;2023-05-17T11:31:09;21.90;99.90
21522;DHT22;10922;45.572;10.002;2023-05-17T11:33:42;21.20;99.90
21522;DHT22;10922;45.572;10.002;2023-05-17T11:36:19;22.20;99.90
21522;DHT22;10922;45.572;10.002;2023-05-17T11:38:51;22.30;99.90
21522;DHT22;10922;45.572;10.002;2023-05-17T11:41:36;21.60;99.90
21522;DHT22;10922;45.572;10.002;2023-05-17T11:44:05;22.00;99.90
21522;DHT22;10922;45.572;10.002;2023-05-17T11:46:31;22.50;99.90
21522;DHT22;10922;45.572;10.002;2023-05-17T11:48:58;22.10;99.90
21522;DHT22;10922;45.572;10.002;2023-05-17T11:51:24;22.50;99.90
21522;DHT22;10922;45.572;10.002;2023-05-17T11:53:53;22.40;99.90
21522;DHT22;10922;45.572;10.002;2023-05-17T11:56:19;21.90;99.90
21522;DHT22;10922;45.572;10.002;2023-05-17T11:58:50;21.70;99.90
21522;DHT22;10922;45.572;10.002;2023-05-17T12:01:17;21.20;99.90
21522;DHT22;10922;45.572;10.002;2023-05-17T12:03:44;21.30;99.90
21522;DHT22;10922;45.572;10.002;2023-05-17T12:06:14;20.40;99.90
21522;DHT22;10922;45.572;10.002;2023-05-17T12:08:45;19.80;99.90
21522;DHT22;10922;45.572;10.002;2023-05-17T12:11:12;19.70;99.90
21522;DHT22;10922;45.572;10.002;2023-05-17T12:13:39;19.70;99.90
21522;DHT22;10922;45.572;10.002;2023-05-17T12:16:12;20.30;99.90
21522;DHT22;10922;45.572;10.002;2023-05-17T12:18:43;20.00;99.90
21522;DHT22;10922;45.572;10.002;2023-05-17T12:21:12;19.70;99.90
21522;DHT22;10922;45.572;10.002;2023-05-17T12:23:40;20.10;99.90
21522;DHT22;10922;45.572;10.002;2023-05-17T12:26:15;20.10;99.90
21522;DHT22;10922;45.572;10.002;2023-05-17T12:28:45;20.10;99.90
21522;DHT22;10922;45.572;10.002;2023-05-17T12:31:15;19.70;99.90
21522;DHT22;10922;45.572;10.002;2023-05-17T12:33:42;20.30;99.90
21522;DHT22;10922;45.572;10.002;2023-05-17T12:36:10;20.50;99.90
21522;DHT22;10922;45.572;10.002;2023-05-17T12:38:38;20.40;99.90
21522;DHT22;10922;45.572;10.002;2023-05-17T12:41:05;21.00;99.90
21522;DHT22;10922;45.572;10.002;2023-05-17T12:43:36;20.60;99.90
21522;DHT22;10922;45.572;10.002;2023-05-17T12:46:06;20.70;99.90
21522;DHT22;10922;45.572;10.002;2023-05-17T12:48:36;20.60;99.90
21522;DHT22;10922;45.572;10.002;2023-05-17T12:53:41;20.20;99.90
21522;DHT22;10922;45.572;10.002;2023-05-17T12:56:08;20.40;99.90
21522;DHT22;10922;45.572;10.002;2023-05-17T12:58:38;20.20;99.90
21522;DHT22;10922;45.572;10.002;2023-05-17T13:01:04;20.20;99.90
21522;DHT22;10922;45.572;10.002;2023-05-17T13:03:32;20.10;99.90
21522;DHT22;10922;45.572;10.002;2023-05-17T13:06:06;19.80;99.90
21522;DHT22;10922;45.572;10.002;2023-05-17T13:08:34;20.30;99.90
21522;DHT22;10922;45.572;10.002;2023-05-17T13:11:13;20.70;99.90
21522;DHT22;10922;45.572;10.002;2023-05-17T13:13:40;20.20;99.90
21522;DHT22;10922;45.572;10.002;2023-05-17T13:16:06;20.00;99.90
21522;DHT22;10922;45.572;10.002;2023-05-17T13:18:49;19.80;99.90
21522;DHT22;10922;45.572;10.002;2023-05-17T13:21:16;20.30;99.90
21522;DHT22;10922;45.572;10.002;2023-05-17T13:23:43;20.20;99.90
21522;DHT22;10922;45.572;10.002;2023-05-17T13:26:09;19.70;99.90
21522;DHT22;10922;45.572;10.002;2023-05-17T13:28:36;19.50;99.90
21522;DHT22;10922;45.572;10.002;2023-05-17T13:31:01;19.30;99.90
21522;DHT22;10922;45.572;10.002;2023-05-17T13:33:27;19.00;99.90
21522;DHT22;10922;45.572;10.002;2023-05-17T13:35:53;19.00;99.90
21522;DHT22;10922;45.572;10.002;2023-05-17T13:38:19;18.90;99.90
21522;DHT22;10922;45.572;10.002;2023-05-17T13:40:45;18.70;99.90
21522;DHT22;10922;45.572;10.002;2023-05-17T13:43:11;18.70;99.90
21522;DHT22;10922;45.572;10.002;2023-05-17T13:45:37;18.60;99.90
21522;DHT22;10922;45.572;10.002;2023-05-17T13:48:02;18.30;99.90
21522;DHT22;10922;45.572;10.002;2023-05-17T13:50:28;18.40;99.90
21522;DHT22;10922;45.572;10.002;2023-05-17T13:52:54;18.30;99.90
21522;DHT22;10922;45.572;10.002;2023-05-17T13:55:20;18.80;99.90
21522;DHT22;10922;45.572;10.002;2023-05-17T13:57:46;18.70;99.90
21522;DHT22;10922;45.572;10.002;2023-05-17T14:00:12;18.90;99.90
21522;DHT22;10922;45.572;10.002;2023-05-17T14:02:37;18.90;99.90
21522;DHT22;10922;45.572;10.002;2023-05-17T14:05:04;18.90;99.90
21522;DHT22;10922;45.572;10.002;2023-05-17T14:07:31;18.70;99.90
21522;DHT22;10922;45.572;10.002;2023-05-17T14:09:57;18.90;99.90
21522;DHT22;10922;45.572;10.002;2023-05-17T14:12:23;18.80;99.90
21522;DHT22;10922;45.572;10.002;2023-05-17T14:14:49;18.60;99.90
21522;DHT22;10922;45.572;10.002;2023-05-17T14:17:14;18.40;99.90
21522;DHT22;10922;45.572;10.002;2023-05-17T14:19:40;18.50;99.90
21522;DHT22;10922;45.572;10.002;2023-05-17T14:22:06;18.40;99.90
21522;DHT22;10922;45.572;10.002;2023-05-17T14:24:33;18.50;99.90
21522;DHT22;10922;45.572;10.002;2023-05-17T14:26:58;18.30;99.90
21522;DHT22;10922;45.572;10.002;2023-05-17T14:29:24;18.40;99.90
21522;DHT22;10922;45.572;10.002;2023-05-17T14:31:50;18.70;99.90
21522;DHT22;10922;45.572;10.002;2023-05-17T14:34:16;18.50;99.90
21522;DHT22;10922;45.572;10.002;2023-05-17T14:36:41;19.10;99.90
21522;DHT22;10922;45.572;10.002;2023-05-17T14:39:07;20.50;99.90
21522;DHT22;10922;45.572;10.002;2023-05-17T14:41:34;20.50;99.90
21522;DHT22;10922;45.572;10.002;2023-05-17T14:44:00;20.50;99.90
21522;DHT22;10922;45.572;10.002;2023-05-17T14:46:25;20.50;99.90
21522;DHT22;10922;45.572;10.002;2023-05-17T14:48:51;20.00;99.90
21522;DHT22;10922;45.572;10.002;2023-05-17T14:51:18;19.70;99.90
21522;DHT22;10922;45.572;10.002;2023-05-17T14:53:43;19.20;99.90
21522;DHT22;10922;45.572;10.002;2023-05-17T14:56:09;19.10;99.90
21522;DHT22;10922;45.572;10.002;2023-05-17T14:58:35;19.10;99.90
21522;DHT22;10922;45.572;10.002;2023-05-17T15:01:00;19.60;99.90
21522;DHT22;10922;45.572;10.002;2023-05-17T15:03:26;19.40;99.90
21522;DHT22;10922;45.572;10.002;2023-05-17T15:05:53;20.00;99.90
21522;DHT22;10922;45.572;10.002;2023-05-17T15:08:19;20.10;99.90
21522;DHT22;10922;45.572;10.002;2023-05-17T15:10:46;21.20;99.90
21522;DHT22;10922;45.572;10.002;2023-05-17T15:13:13;20.80;99.90
21522;DHT22;10922;45.572;10.002;2023-05-17T15:15:39;21.10;99.90
21522;DHT22;10922;45.572;10.002;2023-05-17T15:18:04;20.80;99.90
21522;DHT22;10922;45.572;10.002;2023-05-17T15:20:34;19.70;99.90
21522;DHT22;10922;45.572;10.002;2023-05-17T15:23:00;19.30;99.90
21522;DHT22;10922;45.572;10.002;2023-05-17T15:25:26;18.70;99.90
21522;DHT22;10922;45.572;10.002;2023-05-17T15:27:52;18.50;99.90
21522;DHT22;10922;45.572;10.002;2023-05-17T15:30:18;18.60;99.90
21522;DHT22;10922;45.572;10.002;2023-05-17T15:32:44;18.60;99.90
21522;DHT22;10922;45.572;10.002;2023-05-17T15:35:10;18.60;99.90
21522;DHT22;10922;45.572;10.002;2023-05-17T15:37:36;18.50;99.90
21522;DHT22;10922;45.572;10.002;2023-05-17T15:40:08;18.30;99.90
21522;DHT22;10922;45.572;10.002;2023-05-17T15:42:34;18.30;99.90